sensor_id;sensor_type;location;lat;lon;timestamp;P1;durP1;ratioP1;P2;durP2;ratioP2
54197;SDS011;40105;52.366;17.000;2023-02-17T00:00:55;72.85;;;23.80;;
54197;SDS011;40105;52.366;17.000;2023-02-17T00:03:20;58.13;;;24.20;;
54197;SDS011;40105;52.366;17.000;2023-02-17T00:05:46;55.60;;;23.27;;
54197;SDS011;40105;52.366;17.000;2023-02-17T00:08:11;51.97;;;21.67;;
54197;SDS011;40105;52.366;17.000;2023-02-17T00:10:36;53.17;;;21.73;;
54197;SDS011;40105;52.366;17.000;2023-02-17T00:13:01;52.20;;;21.63;;
54197;SDS011;40105;52.366;17.000;2023-02-17T00:15:26;56.53;;;22.05;;
54197;SDS011;40105;52.366;17.000;2023-02-17T00:17:52;51.07;;;22.10;;
54197;SDS011;40105;52.366;17.000;2023-02-17T00:20:17;45.20;;;21.90;;
54197;SDS011;40105;52.366;17.000;2023-02-17T00:22:42;50.47;;;21.10;;
54197;SDS011;40105;52.366;17.000;2023-02-17T00:25:07;42.97;;;20.93;;
54197;SDS011;40105;52.366;17.000;2023-02-17T00:27:32;60.47;;;21.07;;
54197;SDS011;40105;52.366;17.000;2023-02-17T00:29:57;48.53;;;21.03;;
54197;SDS011;40105;52.366;17.000;2023-02-17T00:32:23;50.43;;;20.43;;
54197;SDS011;40105;52.366;17.000;2023-02-17T00:34:48;46.83;;;20.70;;
54197;SDS011;40105;52.366;17.000;2023-02-17T00:37:13;51.40;;;21.33;;
54197;SDS011;40105;52.366;17.000;2023-02-17T00:39:38;48.87;;;21.70;;
54197;SDS011;40105;52.366;17.000;2023-02-17T00:42:03;53.17;;;20.97;;
54197;SDS011;40105;52.366;17.000;2023-02-17T00:44:28;51.70;;;21.00;;
54197;SDS011;40105;52.366;17.000;2023-02-17T00:46:54;50.03;;;19.77;;
54197;SDS011;40105;52.366;17.000;2023-02-17T00:49:23;50.30;;;20.37;;
54197;SDS011;40105;52.366;17.000;2023-02-17T00:51:48;50.53;;;20.52;;
54197;SDS011;40105;52.366;17.000;2023-02-17T00:54:14;54.92;;;20.98;;
54197;SDS011;40105;52.366;17.000;2023-02-17T00:56:40;55.70;;;20.95;;
54197;SDS011;40105;52.366;17.000;2023-02-17T00:59:05;61.10;;;21.52;;
54197;SDS011;40105;52.366;17.000;2023-02-17T01:01:31;51.58;;;19.63;;
54197;SDS011;40105;52.366;17.000;2023-02-17T01:03:57;51.30;;;20.85;;
54197;SDS011;40105;52.366;17.000;2023-02-17T01:06:23;55.50;;;19.85;;
54197;SDS011;40105;52.366;17.000;2023-02-17T01:08:49;44.92;;;19.58;;
54197;SDS011;40105;52.366;17.000;2023-02-17T01:11:17;50.08;;;19.02;;
54197;SDS011;40105;52.366;17.000;2023-02-17T01:13:43;47.75;;;20.23;;
54197;SDS011;40105;52.366;17.000;2023-02-17T01:16:14;52.83;;;19.40;;
54197;SDS011;40105;52.366;17.000;2023-02-17T01:18:40;49.20;;;19.35;;
54197;SDS011;40105;52.366;17.000;2023-02-17T01:21:05;39.20;;;17.27;;
54197;SDS011;40105;52.366;17.000;2023-02-17T01:23:38;45.10;;;19.80;;
54197;SDS011;40105;52.366;17.000;2023-02-17T01:26:03;45.97;;;18.63;;
54197;SDS011;40105;52.366;17.000;2023-02-17T01:28:29;56.13;;;20.93;;
54197;SDS011;40105;52.366;17.000;2023-02-17T01:30:55;42.03;;;20.40;;
54197;SDS011;40105;52.366;17.000;2023-02-17T01:33:20;44.73;;;19.87;;
54197;SDS011;40105;52.366;17.000;2023-02-17T01:35:45;42.67;;;18.70;;
54197;SDS011;40105;52.366;17.000;2023-02-17T01:38:10;41.97;;;16.80;;
54197;SDS011;40105;52.366;17.000;2023-02-17T01:40:35;48.07;;;20.50;;
54197;SDS011;40105;52.366;17.000;2023-02-17T01:43:01;47.10;;;19.17;;
54197;SDS011;40105;52.366;17.000;2023-02-17T01:45:28;39.90;;;18.77;;
54197;SDS011;40105;52.366;17.000;2023-02-17T01:47:56;51.28;;;18.95;;
54197;SDS011;40105;52.366;17.000;2023-02-17T01:50:24;42.83;;;18.35;;
54197;SDS011;40105;52.366;17.000;2023-02-17T01:52:51;49.28;;;21.77;;
54197;SDS011;40105;52.366;17.000;2023-02-17T01:55:17;38.28;;;18.15;;
54197;SDS011;40105;52.366;17.000;2023-02-17T01:57:43;47.20;;;20.10;;
54197;SDS011;40105;52.366;17.000;2023-02-17T02:00:09;41.70;;;19.10;;
54197;SDS011;40105;52.366;17.000;2023-02-17T02:02:35;42.03;;;18.50;;
54197;SDS011;40105;52.366;17.000;2023-02-17T02:05:01;46.33;;;19.95;;
54197;SDS011;40105;52.366;17.000;2023-02-17T02:07:28;49.85;;;19.40;;
54197;SDS011;40105;52.366;17.000;2023-02-17T02:09:55;43.85;;;18.85;;
54197;SDS011;40105;52.366;17.000;2023-02-17T02:12:22;39.83;;;18.25;;
54197;SDS011;40105;52.366;17.000;2023-02-17T02:14:47;43.70;;;19.02;;
54197;SDS011;40105;52.366;17.000;2023-02-17T02:27:41;47.47;;;21.27;;
54197;SDS011;40105;52.366;17.000;2023-02-17T02:30:14;39.28;;;18.85;;
54197;SDS011;40105;52.366;17.000;2023-02-17T02:35:12;43.92;;;17.33;;
54197;SDS011;40105;52.366;17.000;2023-02-17T02:37:44;47.60;;;18.20;;
54197;SDS011;40105;52.366;17.000;2023-02-17T02:40:11;55.63;;;20.05;;
54197;SDS011;40105;52.366;17.000;2023-02-17T02:42:38;48.95;;;17.95;;
54197;SDS011;40105;52.366;17.000;2023-02-17T02:45:05;46.45;;;19.20;;
54197;SDS011;40105;52.366;17.000;2023-02-17T02:48:13;44.53;;;18.73;;
54197;SDS011;40105;52.366;17.000;2023-02-17T02:53:23;41.70;;;18.17;;
54197;SDS011;40105;52.366;17.000;2023-02-17T02:58:24;47.70;;;21.35;;
54197;SDS011;40105;52.366;17.000;2023-02-17T03:00:54;47.92;;;19.20;;
54197;SDS011;40105;52.366;17.000;2023-02-17T03:03:34;47.25;;;18.20;;
54197;SDS011;40105;52.366;17.000;2023-02-17T03:06:21;42.17;;;17.73;;
54197;SDS011;40105;52.366;17.000;2023-02-17T03:08:52;39.70;;;16.52;;
54197;SDS011;40105;52.366;17.000;2023-02-17T03:11:21;38.30;;;18.02;;
54197;SDS011;40105;52.366;17.000;2023-02-17T03:13:58;45.70;;;22.60;;
54197;SDS011;40105;52.366;17.000;2023-02-17T03:16:24;35.67;;;16.40;;
54197;SDS011;40105;52.366;17.000;2023-02-17T03:18:49;44.10;;;19.10;;
54197;SDS011;40105;52.366;17.000;2023-02-17T03:21:15;40.00;;;17.53;;
54197;SDS011;40105;52.366;17.000;2023-02-17T03:23:40;36.80;;;17.00;;
54197;SDS011;40105;52.366;17.000;2023-02-17T03:26:06;35.80;;;16.70;;
54197;SDS011;40105;52.366;17.000;2023-02-17T03:28:31;44.90;;;18.13;;
54197;SDS011;40105;52.366;17.000;2023-02-17T03:30:56;45.80;;;17.13;;
54197;SDS011;40105;52.366;17.000;2023-02-17T03:33:21;41.33;;;18.57;;
54197;SDS011;40105;52.366;17.000;2023-02-17T03:35:46;38.53;;;17.60;;
54197;SDS011;40105;52.366;17.000;2023-02-17T03:38:12;36.23;;;16.40;;
54197;SDS011;40105;52.366;17.000;2023-02-17T03:40:37;37.97;;;16.27;;
54197;SDS011;40105;52.366;17.000;2023-02-17T03:43:02;42.40;;;17.53;;
54197;SDS011;40105;52.366;17.000;2023-02-17T03:45:27;36.87;;;15.27;;
54197;SDS011;40105;52.366;17.000;2023-02-17T03:47:52;42.30;;;15.77;;
54197;SDS011;40105;52.366;17.000;2023-02-17T03:50:17;34.95;;;15.40;;
54197;SDS011;40105;52.366;17.000;2023-02-17T03:52:43;50.30;;;17.97;;
54197;SDS011;40105;52.366;17.000;2023-02-17T03:55:08;39.92;;;16.58;;
54197;SDS011;40105;52.366;17.000;2023-02-17T03:57:33;39.23;;;20.10;;
54197;SDS011;40105;52.366;17.000;2023-02-17T03:59:59;33.08;;;16.25;;
54197;SDS011;40105;52.366;17.000;2023-02-17T04:02:24;42.77;;;17.90;;
54197;SDS011;40105;52.366;17.000;2023-02-17T04:04:49;37.35;;;17.10;;
54197;SDS011;40105;52.366;17.000;2023-02-17T04:07:14;41.37;;;17.73;;
54197;SDS011;40105;52.366;17.000;2023-02-17T04:09:40;46.67;;;19.43;;
54197;SDS011;40105;52.366;17.000;2023-02-17T04:12:05;57.67;;;21.33;;
54197;SDS011;40105;52.366;17.000;2023-02-17T04:14:30;48.10;;;19.23;;
54197;SDS011;40105;52.366;17.000;2023-02-17T04:16:55;48.37;;;18.07;;
54197;SDS011;40105;52.366;17.000;2023-02-17T04:19:21;41.10;;;19.57;;
54197;SDS011;40105;52.366;17.000;2023-02-17T04:21:46;49.17;;;19.30;;
54197;SDS011;40105;52.366;17.000;2023-02-17T04:24:11;58.43;;;22.10;;
54197;SDS011;40105;52.366;17.000;2023-02-17T04:26:36;39.03;;;18.67;;
54197;SDS011;40105;52.366;17.000;2023-02-17T04:29:03;53.97;;;21.30;;
54197;SDS011;40105;52.366;17.000;2023-02-17T04:31:28;51.47;;;20.55;;
54197;SDS011;40105;52.366;17.000;2023-02-17T04:33:53;43.43;;;20.80;;
54197;SDS011;40105;52.366;17.000;2023-02-17T04:36:19;50.80;;;21.03;;
54197;SDS011;40105;52.366;17.000;2023-02-17T04:38:44;56.20;;;21.10;;
54197;SDS011;40105;52.366;17.000;2023-02-17T04:41:09;61.42;;;22.05;;
54197;SDS011;40105;52.366;17.000;2023-02-17T04:43:34;52.73;;;21.83;;
54197;SDS011;40105;52.366;17.000;2023-02-17T04:46:00;56.70;;;26.43;;
54197;SDS011;40105;52.366;17.000;2023-02-17T04:48:25;54.40;;;23.13;;
54197;SDS011;40105;52.366;17.000;2023-02-17T04:50:50;59.93;;;25.80;;
54197;SDS011;40105;52.366;17.000;2023-02-17T04:53:16;53.85;;;21.63;;
54197;SDS011;40105;52.366;17.000;2023-02-17T04:55:41;60.53;;;23.15;;
54197;SDS011;40105;52.366;17.000;2023-02-17T04:58:07;54.55;;;24.83;;
54197;SDS011;40105;52.366;17.000;2023-02-17T05:00:33;63.20;;;26.48;;
54197;SDS011;40105;52.366;17.000;2023-02-17T05:02:58;64.60;;;27.98;;
54197;SDS011;40105;52.366;17.000;2023-02-17T05:05:23;72.83;;;30.07;;
54197;SDS011;40105;52.366;17.000;2023-02-17T05:07:48;70.70;;;28.73;;
54197;SDS011;40105;52.366;17.000;2023-02-17T05:10:14;68.25;;;28.65;;
54197;SDS011;40105;52.366;17.000;2023-02-17T05:12:40;68.32;;;26.40;;
54197;SDS011;40105;52.366;17.000;2023-02-17T05:15:05;70.63;;;29.47;;
54197;SDS011;40105;52.366;17.000;2023-02-17T05:17:31;65.88;;;27.33;;
54197;SDS011;40105;52.366;17.000;2023-02-17T05:19:56;74.03;;;29.02;;
54197;SDS011;40105;52.366;17.000;2023-02-17T05:22:22;65.50;;;25.23;;
54197;SDS011;40105;52.366;17.000;2023-02-17T05:24:47;83.47;;;29.70;;
54197;SDS011;40105;52.366;17.000;2023-02-17T05:27:12;72.03;;;27.97;;
54197;SDS011;40105;52.366;17.000;2023-02-17T05:29:37;87.63;;;31.37;;
54197;SDS011;40105;52.366;17.000;2023-02-17T05:32:02;92.65;;;35.22;;
54197;SDS011;40105;52.366;17.000;2023-02-17T05:34:28;67.27;;;30.07;;
54197;SDS011;40105;52.366;17.000;2023-02-17T05:36:53;70.53;;;27.50;;
54197;SDS011;40105;52.366;17.000;2023-02-17T05:39:18;81.53;;;29.67;;
54197;SDS011;40105;52.366;17.000;2023-02-17T05:41:43;80.93;;;30.77;;
54197;SDS011;40105;52.366;17.000;2023-02-17T05:44:08;62.77;;;27.97;;
54197;SDS011;40105;52.366;17.000;2023-02-17T05:46:33;70.17;;;31.30;;
54197;SDS011;40105;52.366;17.000;2023-02-17T05:48:59;83.40;;;32.17;;
54197;SDS011;40105;52.366;17.000;2023-02-17T05:51:24;78.13;;;27.17;;
54197;SDS011;40105;52.366;17.000;2023-02-17T05:53:49;69.33;;;26.83;;
54197;SDS011;40105;52.366;17.000;2023-02-17T05:56:14;64.43;;;31.53;;
54197;SDS011;40105;52.366;17.000;2023-02-17T05:58:39;73.60;;;25.90;;
54197;SDS011;40105;52.366;17.000;2023-02-17T06:01:08;76.87;;;27.67;;
54197;SDS011;40105;52.366;17.000;2023-02-17T06:03:33;60.28;;;28.65;;
54197;SDS011;40105;52.366;17.000;2023-02-17T06:05:58;64.73;;;27.50;;
54197;SDS011;40105;52.366;17.000;2023-02-17T06:08:23;67.43;;;27.20;;
54197;SDS011;40105;52.366;17.000;2023-02-17T06:10:49;87.53;;;34.47;;
54197;SDS011;40105;52.366;17.000;2023-02-17T06:13:16;77.05;;;32.00;;
54197;SDS011;40105;52.366;17.000;2023-02-17T06:15:41;86.70;;;34.60;;
54197;SDS011;40105;52.366;17.000;2023-02-17T06:18:06;67.87;;;26.47;;
54197;SDS011;40105;52.366;17.000;2023-02-17T06:20:31;78.00;;;27.90;;
54197;SDS011;40105;52.366;17.000;2023-02-17T06:22:56;76.37;;;31.13;;
54197;SDS011;40105;52.366;17.000;2023-02-17T06:25:22;72.77;;;32.50;;
54197;SDS011;40105;52.366;17.000;2023-02-17T06:27:47;92.65;;;32.15;;
54197;SDS011;40105;52.366;17.000;2023-02-17T06:30:12;80.30;;;30.63;;
54197;SDS011;40105;52.366;17.000;2023-02-17T06:32:38;74.15;;;29.63;;
54197;SDS011;40105;52.366;17.000;2023-02-17T06:35:04;89.87;;;30.53;;
54197;SDS011;40105;52.366;17.000;2023-02-17T06:37:29;73.65;;;29.92;;
54197;SDS011;40105;52.366;17.000;2023-02-17T06:39:54;84.00;;;35.73;;
54197;SDS011;40105;52.366;17.000;2023-02-17T06:42:19;57.43;;;25.20;;
54197;SDS011;40105;52.366;17.000;2023-02-17T06:44:44;66.47;;;25.57;;
54197;SDS011;40105;52.366;17.000;2023-02-17T06:47:09;72.30;;;29.33;;
54197;SDS011;40105;52.366;17.000;2023-02-17T06:49:35;73.60;;;27.00;;
54197;SDS011;40105;52.366;17.000;2023-02-17T06:52:00;83.97;;;29.47;;
54197;SDS011;40105;52.366;17.000;2023-02-17T06:54:25;93.95;;;31.80;;
54197;SDS011;40105;52.366;17.000;2023-02-17T06:56:50;90.60;;;29.48;;
54197;SDS011;40105;52.366;17.000;2023-02-17T06:59:15;81.20;;;31.87;;
54197;SDS011;40105;52.366;17.000;2023-02-17T07:01:41;65.00;;;28.07;;
54197;SDS011;40105;52.366;17.000;2023-02-17T07:04:06;69.95;;;29.13;;
54197;SDS011;40105;52.366;17.000;2023-02-17T07:06:31;76.13;;;29.60;;
54197;SDS011;40105;52.366;17.000;2023-02-17T07:08:56;75.27;;;28.90;;
54197;SDS011;40105;52.366;17.000;2023-02-17T07:11:22;73.77;;;26.83;;
54197;SDS011;40105;52.366;17.000;2023-02-17T07:13:47;71.87;;;27.67;;
54197;SDS011;40105;52.366;17.000;2023-02-17T07:16:12;78.13;;;27.00;;
54197;SDS011;40105;52.366;17.000;2023-02-17T07:18:38;82.90;;;27.73;;
54197;SDS011;40105;52.366;17.000;2023-02-17T07:21:03;74.00;;;30.10;;
54197;SDS011;40105;52.366;17.000;2023-02-17T07:23:29;79.03;;;29.15;;
54197;SDS011;40105;52.366;17.000;2023-02-17T07:25:55;98.00;;;34.22;;
54197;SDS011;40105;52.366;17.000;2023-02-17T07:28:20;102.43;;;38.90;;
54197;SDS011;40105;52.366;17.000;2023-02-17T07:30:45;84.73;;;28.77;;
54197;SDS011;40105;52.366;17.000;2023-02-17T07:33:10;72.13;;;30.53;;
54197;SDS011;40105;52.366;17.000;2023-02-17T07:35:42;79.90;;;27.73;;
54197;SDS011;40105;52.366;17.000;2023-02-17T07:38:10;102.68;;;36.53;;
54197;SDS011;40105;52.366;17.000;2023-02-17T07:40:35;82.65;;;30.40;;
54197;SDS011;40105;52.366;17.000;2023-02-17T07:43:00;75.40;;;28.90;;
54197;SDS011;40105;52.366;17.000;2023-02-17T07:45:25;95.67;;;39.97;;
54197;SDS011;40105;52.366;17.000;2023-02-17T07:47:51;87.90;;;38.07;;
54197;SDS011;40105;52.366;17.000;2023-02-17T07:50:16;61.80;;;27.70;;
54197;SDS011;40105;52.366;17.000;2023-02-17T07:52:41;67.87;;;30.63;;
54197;SDS011;40105;52.366;17.000;2023-02-17T07:55:06;68.10;;;27.85;;
54197;SDS011;40105;52.366;17.000;2023-02-17T07:57:31;61.30;;;25.95;;
54197;SDS011;40105;52.366;17.000;2023-02-17T07:59:57;98.50;;;29.90;;
54197;SDS011;40105;52.366;17.000;2023-02-17T08:02:22;77.57;;;29.70;;
54197;SDS011;40105;52.366;17.000;2023-02-17T08:04:47;76.43;;;25.35;;
54197;SDS011;40105;52.366;17.000;2023-02-17T08:07:12;70.13;;;27.93;;
54197;SDS011;40105;52.366;17.000;2023-02-17T08:09:38;87.97;;;33.33;;
54197;SDS011;40105;52.366;17.000;2023-02-17T08:12:22;74.53;;;27.92;;
54197;SDS011;40105;52.366;17.000;2023-02-17T08:15:07;76.15;;;29.42;;
54197;SDS011;40105;52.366;17.000;2023-02-17T08:17:33;73.30;;;29.42;;
54197;SDS011;40105;52.366;17.000;2023-02-17T08:19:58;69.80;;;30.83;;
54197;SDS011;40105;52.366;17.000;2023-02-17T08:22:23;67.00;;;27.83;;
54197;SDS011;40105;52.366;17.000;2023-02-17T08:24:49;70.23;;;28.70;;
54197;SDS011;40105;52.366;17.000;2023-02-17T08:27:14;76.25;;;32.22;;
54197;SDS011;40105;52.366;17.000;2023-02-17T08:29:40;89.57;;;28.67;;
54197;SDS011;40105;52.366;17.000;2023-02-17T08:32:05;83.57;;;33.20;;
54197;SDS011;40105;52.366;17.000;2023-02-17T08:34:30;63.27;;;27.70;;
54197;SDS011;40105;52.366;17.000;2023-02-17T08:36:59;81.10;;;29.60;;
54197;SDS011;40105;52.366;17.000;2023-02-17T08:39:24;65.22;;;26.65;;
54197;SDS011;40105;52.366;17.000;2023-02-17T08:41:51;67.85;;;28.25;;
54197;SDS011;40105;52.366;17.000;2023-02-17T08:44:16;67.70;;;28.05;;
54197;SDS011;40105;52.366;17.000;2023-02-17T08:46:42;74.20;;;28.08;;
54197;SDS011;40105;52.366;17.000;2023-02-17T08:49:08;74.90;;;27.17;;
54197;SDS011;40105;52.366;17.000;2023-02-17T08:51:33;73.13;;;27.50;;
54197;SDS011;40105;52.366;17.000;2023-02-17T08:53:59;97.38;;;41.72;;
54197;SDS011;40105;52.366;17.000;2023-02-17T08:56:25;76.97;;;30.48;;
54197;SDS011;40105;52.366;17.000;2023-02-17T08:58:50;65.47;;;29.05;;
54197;SDS011;40105;52.366;17.000;2023-02-17T09:01:16;77.68;;;33.28;;
54197;SDS011;40105;52.366;17.000;2023-02-17T09:03:43;81.32;;;31.23;;
54197;SDS011;40105;52.366;17.000;2023-02-17T09:06:08;70.45;;;27.38;;
54197;SDS011;40105;52.366;17.000;2023-02-17T09:08:33;74.90;;;29.30;;
54197;SDS011;40105;52.366;17.000;2023-02-17T09:10:59;62.50;;;29.47;;
54197;SDS011;40105;52.366;17.000;2023-02-17T09:13:24;60.28;;;26.83;;
54197;SDS011;40105;52.366;17.000;2023-02-17T09:15:50;57.20;;;25.27;;
54197;SDS011;40105;52.366;17.000;2023-02-17T09:18:17;71.35;;;29.13;;
54197;SDS011;40105;52.366;17.000;2023-02-17T09:20:42;73.33;;;28.27;;
54197;SDS011;40105;52.366;17.000;2023-02-17T09:23:08;66.27;;;26.40;;
54197;SDS011;40105;52.366;17.000;2023-02-17T09:25:33;82.93;;;29.00;;
54197;SDS011;40105;52.366;17.000;2023-02-17T09:27:58;71.50;;;26.73;;
54197;SDS011;40105;52.366;17.000;2023-02-17T09:30:23;55.75;;;26.05;;
54197;SDS011;40105;52.366;17.000;2023-02-17T09:32:49;71.73;;;26.63;;
54197;SDS011;40105;52.366;17.000;2023-02-17T09:35:14;62.43;;;25.73;;
54197;SDS011;40105;52.366;17.000;2023-02-17T09:37:40;69.60;;;26.55;;
54197;SDS011;40105;52.366;17.000;2023-02-17T09:40:05;57.97;;;26.23;;
54197;SDS011;40105;52.366;17.000;2023-02-17T09:42:38;75.18;;;30.02;;
54197;SDS011;40105;52.366;17.000;2023-02-17T09:45:05;60.10;;;26.85;;
54197;SDS011;40105;52.366;17.000;2023-02-17T09:47:42;76.30;;;30.40;;
54197;SDS011;40105;52.366;17.000;2023-02-17T09:50:11;69.65;;;27.33;;
54197;SDS011;40105;52.366;17.000;2023-02-17T09:57:48;63.67;;;25.35;;
54197;SDS011;40105;52.366;17.000;2023-02-17T10:00:15;66.85;;;26.83;;
54197;SDS011;40105;52.366;17.000;2023-02-17T10:05:12;78.47;;;32.58;;
54197;SDS011;40105;52.366;17.000;2023-02-17T10:07:41;64.68;;;27.25;;
54197;SDS011;40105;52.366;17.000;2023-02-17T10:10:09;65.43;;;29.83;;
54197;SDS011;40105;52.366;17.000;2023-02-17T10:12:37;73.13;;;29.50;;
54197;SDS011;40105;52.366;17.000;2023-02-17T10:15:15;64.38;;;25.17;;
54197;SDS011;40105;52.366;17.000;2023-02-17T10:17:45;64.47;;;24.50;;
54197;SDS011;40105;52.366;17.000;2023-02-17T10:20:13;46.95;;;24.33;;
54197;SDS011;40105;52.366;17.000;2023-02-17T10:22:44;54.70;;;26.98;;
54197;SDS011;40105;52.366;17.000;2023-02-17T10:25:12;49.33;;;22.40;;
54197;SDS011;40105;52.366;17.000;2023-02-17T10:27:40;54.42;;;27.67;;
54197;SDS011;40105;52.366;17.000;2023-02-17T10:30:21;42.50;;;24.08;;
54197;SDS011;40105;52.366;17.000;2023-02-17T10:32:55;55.55;;;25.77;;
54197;SDS011;40105;52.366;17.000;2023-02-17T10:35:24;50.05;;;25.38;;
54197;SDS011;40105;52.366;17.000;2023-02-17T10:37:55;50.08;;;24.15;;
54197;SDS011;40105;52.366;17.000;2023-02-17T10:40:23;53.50;;;24.33;;
54197;SDS011;40105;52.366;17.000;2023-02-17T10:42:50;45.45;;;24.15;;
54197;SDS011;40105;52.366;17.000;2023-02-17T10:45:18;50.03;;;24.90;;
54197;SDS011;40105;52.366;17.000;2023-02-17T10:47:45;60.45;;;25.85;;
54197;SDS011;40105;52.366;17.000;2023-02-17T10:50:19;44.90;;;21.88;;
54197;SDS011;40105;52.366;17.000;2023-02-17T10:52:45;46.45;;;24.45;;
54197;SDS011;40105;52.366;17.000;2023-02-17T10:55:24;44.10;;;22.65;;
54197;SDS011;40105;52.366;17.000;2023-02-17T10:57:58;39.40;;;20.40;;
54197;SDS011;40105;52.366;17.000;2023-02-17T11:00:24;48.53;;;26.50;;
54197;SDS011;40105;52.366;17.000;2023-02-17T11:02:52;48.20;;;25.88;;
54197;SDS011;40105;52.366;17.000;2023-02-17T11:05:25;44.75;;;20.70;;
54197;SDS011;40105;52.366;17.000;2023-02-17T11:07:55;46.05;;;22.88;;
54197;SDS011;40105;52.366;17.000;2023-02-17T11:10:22;51.78;;;27.00;;
54197;SDS011;40105;52.366;17.000;2023-02-17T11:12:47;41.83;;;24.38;;
54197;SDS011;40105;52.366;17.000;2023-02-17T11:15:15;40.95;;;22.45;;
54197;SDS011;40105;52.366;17.000;2023-02-17T11:17:42;44.58;;;22.70;;
54197;SDS011;40105;52.366;17.000;2023-02-17T11:20:26;48.53;;;25.80;;
54197;SDS011;40105;52.366;17.000;2023-02-17T11:23:05;43.47;;;23.05;;
54197;SDS011;40105;52.366;17.000;2023-02-17T11:25:34;42.67;;;21.42;;
54197;SDS011;40105;52.366;17.000;2023-02-17T11:28:01;46.72;;;25.58;;
54197;SDS011;40105;52.366;17.000;2023-02-17T11:30:28;40.42;;;23.17;;
54197;SDS011;40105;52.366;17.000;2023-02-17T11:32:53;45.67;;;23.02;;
54197;SDS011;40105;52.366;17.000;2023-02-17T11:38:00;44.50;;;23.15;;
54197;SDS011;40105;52.366;17.000;2023-02-17T11:40:27;49.40;;;22.45;;
54197;SDS011;40105;52.366;17.000;2023-02-17T11:42:56;42.15;;;20.38;;
54197;SDS011;40105;52.366;17.000;2023-02-17T11:45:22;43.50;;;22.15;;
54197;SDS011;40105;52.366;17.000;2023-02-17T11:47:50;50.17;;;22.52;;
54197;SDS011;40105;52.366;17.000;2023-02-17T11:50:24;47.53;;;22.17;;
54197;SDS011;40105;52.366;17.000;2023-02-17T11:55:25;57.22;;;29.73;;
54197;SDS011;40105;52.366;17.000;2023-02-17T11:58:10;40.03;;;21.13;;
54197;SDS011;40105;52.366;17.000;2023-02-17T12:08:18;52.50;;;23.50;;
54197;SDS011;40105;52.366;17.000;2023-02-17T12:21:14;63.70;;;28.25;;
54197;SDS011;40105;52.366;17.000;2023-02-17T12:26:22;67.30;;;31.65;;
54197;SDS011;40105;52.366;17.000;2023-02-17T12:34:00;52.05;;;24.98;;
54197;SDS011;40105;52.366;17.000;2023-02-17T12:36:32;59.30;;;25.48;;
54197;SDS011;40105;52.366;17.000;2023-02-17T12:44:22;52.50;;;26.77;;
54197;SDS011;40105;52.366;17.000;2023-02-17T12:46:52;57.67;;;27.92;;
54197;SDS011;40105;52.366;17.000;2023-02-17T12:49:36;50.72;;;24.05;;
54197;SDS011;40105;52.366;17.000;2023-02-17T12:52:12;57.25;;;27.30;;
54197;SDS011;40105;52.366;17.000;2023-02-17T12:57:24;63.17;;;25.45;;
54197;SDS011;40105;52.366;17.000;2023-02-17T12:59:51;57.22;;;26.90;;
54197;SDS011;40105;52.366;17.000;2023-02-17T13:02:18;60.55;;;27.65;;
54197;SDS011;40105;52.366;17.000;2023-02-17T13:04:46;54.63;;;26.13;;
54197;SDS011;40105;52.366;17.000;2023-02-17T13:09:55;51.03;;;25.55;;
54197;SDS011;40105;52.366;17.000;2023-02-17T13:14:47;53.20;;;23.95;;
54197;SDS011;40105;52.366;17.000;2023-02-17T13:20:02;47.17;;;24.48;;
54197;SDS011;40105;52.366;17.000;2023-02-17T13:22:27;48.65;;;27.15;;
54197;SDS011;40105;52.366;17.000;2023-02-17T13:24:53;51.07;;;29.67;;
54197;SDS011;40105;52.366;17.000;2023-02-17T13:27:20;53.58;;;29.63;;
54197;SDS011;40105;52.366;17.000;2023-02-17T13:29:45;51.88;;;25.10;;
54197;SDS011;40105;52.366;17.000;2023-02-17T13:32:11;45.47;;;24.03;;
54197;SDS011;40105;52.366;17.000;2023-02-17T13:34:37;41.95;;;21.33;;
54197;SDS011;40105;52.366;17.000;2023-02-17T13:39:40;45.78;;;23.38;;
54197;SDS011;40105;52.366;17.000;2023-02-17T13:42:28;39.27;;;20.97;;
54197;SDS011;40105;52.366;17.000;2023-02-17T13:44:51;52.45;;;28.75;;
54197;SDS011;40105;52.366;17.000;2023-02-17T13:47:29;50.47;;;24.95;;
54197;SDS011;40105;52.366;17.000;2023-02-17T13:49:58;45.97;;;23.40;;
54197;SDS011;40105;52.366;17.000;2023-02-17T13:52:28;51.38;;;29.10;;
54197;SDS011;40105;52.366;17.000;2023-02-17T13:54:54;44.22;;;24.23;;
54197;SDS011;40105;52.366;17.000;2023-02-17T13:57:21;37.08;;;19.05;;
54197;SDS011;40105;52.366;17.000;2023-02-17T13:59:46;48.83;;;26.40;;
54197;SDS011;40105;52.366;17.000;2023-02-17T14:02:20;53.20;;;29.07;;
54197;SDS011;40105;52.366;17.000;2023-02-17T14:04:46;46.10;;;23.00;;
54197;SDS011;40105;52.366;17.000;2023-02-17T14:07:11;49.17;;;21.70;;
54197;SDS011;40105;52.366;17.000;2023-02-17T14:09:36;48.30;;;22.10;;
54197;SDS011;40105;52.366;17.000;2023-02-17T14:12:02;56.43;;;27.00;;
54197;SDS011;40105;52.366;17.000;2023-02-17T14:14:30;50.33;;;24.02;;
54197;SDS011;40105;52.366;17.000;2023-02-17T14:17:00;50.63;;;23.75;;
54197;SDS011;40105;52.366;17.000;2023-02-17T14:19:25;43.97;;;24.10;;
54197;SDS011;40105;52.366;17.000;2023-02-17T14:21:56;40.33;;;21.58;;
54197;SDS011;40105;52.366;17.000;2023-02-17T14:24:28;55.85;;;25.02;;
54197;SDS011;40105;52.366;17.000;2023-02-17T14:26:55;41.83;;;21.92;;
54197;SDS011;40105;52.366;17.000;2023-02-17T14:29:20;46.70;;;20.15;;
54197;SDS011;40105;52.366;17.000;2023-02-17T14:31:47;46.33;;;20.13;;
54197;SDS011;40105;52.366;17.000;2023-02-17T14:36:50;50.80;;;23.05;;
54197;SDS011;40105;52.366;17.000;2023-02-17T14:39:15;39.40;;;20.00;;
54197;SDS011;40105;52.366;17.000;2023-02-17T14:41:40;53.47;;;23.20;;
54197;SDS011;40105;52.366;17.000;2023-02-17T14:44:06;44.22;;;20.98;;
54197;SDS011;40105;52.366;17.000;2023-02-17T14:46:31;49.30;;;25.58;;
54197;SDS011;40105;52.366;17.000;2023-02-17T14:48:57;43.25;;;20.85;;
54197;SDS011;40105;52.366;17.000;2023-02-17T14:51:22;49.10;;;22.23;;
54197;SDS011;40105;52.366;17.000;2023-02-17T14:53:48;39.92;;;20.88;;
54197;SDS011;40105;52.366;17.000;2023-02-17T14:58:45;43.35;;;19.05;;
54197;SDS011;40105;52.366;17.000;2023-02-17T15:01:12;38.40;;;19.63;;
54197;SDS011;40105;52.366;17.000;2023-02-17T15:03:37;39.15;;;23.15;;
54197;SDS011;40105;52.366;17.000;2023-02-17T15:06:02;58.65;;;21.83;;
54197;SDS011;40105;52.366;17.000;2023-02-17T15:08:33;45.03;;;23.07;;
54197;SDS011;40105;52.366;17.000;2023-02-17T15:10:59;51.35;;;21.08;;
54197;SDS011;40105;52.366;17.000;2023-02-17T15:13:25;48.50;;;20.23;;
54197;SDS011;40105;52.366;17.000;2023-02-17T15:15:50;50.42;;;22.60;;
54197;SDS011;40105;52.366;17.000;2023-02-17T15:18:16;45.72;;;22.98;;
54197;SDS011;40105;52.366;17.000;2023-02-17T15:20:42;43.50;;;21.45;;
54197;SDS011;40105;52.366;17.000;2023-02-17T15:23:15;52.15;;;21.92;;
54197;SDS011;40105;52.366;17.000;2023-02-17T15:25:40;60.15;;;24.45;;
54197;SDS011;40105;52.366;17.000;2023-02-17T15:28:06;46.20;;;21.92;;